Airfield :
LOGIN :

Register | Disclaimer

   EN    FR    IT 

 










Legend :    VFR   Marginal VFR   IFR   Intensive IFR   Very Intensive IFR
Visi :
Ceiling :
>= 8 km
>= 3000ft
5 to 8 km
1000 to 3000 ft
1500m to 5 km
500 to 1000 ft
800 to 1500m
200 to 500 ft
< 800m
< 200 ft
Symbols :   Thunderstorms  Fog  Heavy snow  Heavy precipitations  Wind > 20 kt
SIGMETs :     Misc.  Thunderstorms  Icing  Turbulence  Mountain Waves  Volcanic Ashes







- Airport Elevation : 141 ft
- IATA code : SKS


EKSP - Srydstrup Vojens

CURRENT METAR :
  • 230950Z 27009KT 230V310 9999 SCT020 21/16 Q1016 NOSIG

EXPIRED METARs :
  • 230920Z 28008KT 250V330 9999 BKN020 21/16 Q1016 NOSIG
  • 230850Z 28008KT 250V320 9999 BKN016 20/16 Q1016 NOSIG
  • 230820Z 27009KT 9999 FEW012 BKN015 19/15 Q1016 NOSIG
  • 230750Z 30010KT 270V330 9999 FEW012 BKN016 19/15 Q1016 NOSIG
  • 230720Z 29011KT 9999 FEW012 BKN016 19/15 Q1015 NOSIG

TAF TAF EKSP
Valid from the 23 at 09:00 until the 24 at 06:00 UTC


230813Z 2309/2406 28010KT 9999 BKN018
TEMPO 2401/2406 1500 BCFG MIFG
No reported NOTAMs for that airfield.



MET'MAP, your aeronautical weather chart ! - Copyright ORBIFLY December 2007 - Disclaimer

ORBIFLY MET'MAP TEAM :

Programming & Development : Alexandra Zaïnal
Concept & Development : Baudouin d'Aumeries
Co-Development & Prog : Marc-Olivier Méhu
Technical & hardware support : Manuel Goepfert

Contact : metmap@orbifly.com




SOURCES & CREDITS :

   NOAA